createdAt,value
2022-11-19T00:00:51.781Z,97455.81
2022-11-19T00:02:56.898Z,97444.94
2022-11-19T00:05:03.567Z,97441.94
2022-11-19T00:07:08.359Z,97451.44
2022-11-19T00:09:14.594Z,97443.22
2022-11-19T00:11:44.788Z,97440.28
2022-11-19T00:13:50.504Z,97436.19
2022-11-19T00:15:55.661Z,97438.94
2022-11-19T00:18:00.839Z,97454.00
2022-11-19T00:20:05.341Z,97448.97
2022-11-19T00:22:10.142Z,97454.03
2022-11-19T00:24:14.880Z,97464.59
2022-11-19T00:26:22.266Z,97455.00
2022-11-19T00:28:27.144Z,97458.63
2022-11-19T00:30:47.479Z,97459.47
2022-11-19T00:32:53.090Z,97463.47
2022-11-19T00:34:57.876Z,97462.66
2022-11-19T00:37:02.634Z,97470.16
2022-11-19T00:39:07.559Z,97468.34
2022-11-19T00:41:12.817Z,97465.13
2022-11-19T00:43:32.398Z,97477.06
2022-11-19T00:45:37.178Z,97478.56
2022-11-19T00:47:42.026Z,97480.75
2022-11-19T00:49:46.770Z,97471.84
2022-11-19T00:51:51.597Z,97476.91
2022-11-19T00:53:56.846Z,97474.94
2022-11-19T00:56:02.787Z,97479.56
2022-11-19T00:58:07.627Z,97475.25
2022-11-19T01:00:16.834Z,97474.09
2022-11-19T01:02:21.584Z,97486.16
2022-11-19T01:04:26.437Z,97484.88
2022-11-19T01:06:31.263Z,97488.19
2022-11-19T01:08:36.057Z,97490.75
2022-11-19T01:10:40.859Z,97497.56
2022-11-19T01:13:00.266Z,97494.88
2022-11-19T01:15:05.003Z,97494.66
2022-11-19T01:17:12.915Z,97492.72
2022-11-19T01:19:18.289Z,97483.69
2022-11-19T01:21:25.330Z,97488.94
2022-11-19T01:23:30.143Z,97484.16
2022-11-19T01:25:35.077Z,97491.41
2022-11-19T01:27:39.844Z,97497.53
2022-11-19T01:29:44.643Z,97492.34
2022-11-19T01:31:49.548Z,97493.97
2022-11-19T01:33:57.352Z,97494.81
2022-11-19T01:36:03.598Z,97498.16
2022-11-19T01:38:09.005Z,97504.28
2022-11-19T01:40:14.222Z,97500.94
2022-11-19T01:42:43.599Z,97501.28
2022-11-19T01:45:03.918Z,97505.66
2022-11-19T01:47:08.685Z,97505.75
2022-11-19T01:49:20.014Z,97505.75
2022-11-19T01:51:28.337Z,97508.47
2022-11-19T01:53:36.505Z,97506.75
2022-11-19T01:55:44.920Z,97501.75
2022-11-19T01:57:56.908Z,97504.44
2022-11-19T02:00:01.756Z,97507.19
2022-11-19T02:02:09.164Z,97514.41
2022-11-19T02:04:19.447Z,97519.69
2022-11-19T02:06:24.610Z,97513.75
2022-11-19T02:08:40.073Z,97508.69
2022-11-19T02:11:01.434Z,97513.91
2022-11-19T02:13:16.403Z,97517.38
2022-11-19T02:15:35.181Z,97519.16
2022-11-19T02:18:10.028Z,97521.16
2022-11-19T02:20:44.661Z,97536.59
2022-11-19T02:23:14.056Z,97534.47
2022-11-19T02:25:36.755Z,97543.69
2022-11-19T02:28:17.414Z,97538.19
2022-11-19T02:30:25.040Z,97534.59
2022-11-19T02:32:35.807Z,97534.53
2022-11-19T02:34:44.563Z,97537.44
2022-11-19T02:36:57.614Z,97536.69
2022-11-19T02:39:09.030Z,97540.69
2022-11-19T02:41:37.598Z,97535.25
2022-11-19T02:43:45.270Z,97540.25
2022-11-19T02:45:56.510Z,97531.59
2022-11-19T02:48:04.923Z,97533.53
2022-11-19T02:50:14.613Z,97535.44
2022-11-19T02:52:20.958Z,97525.03
2022-11-19T02:54:25.703Z,97534.44
2022-11-19T02:56:49.895Z,97531.84
2022-11-19T02:59:09.204Z,97540.31
2022-11-19T03:01:30.007Z,97539.56
2022-11-19T03:03:48.297Z,97534.34
2022-11-19T03:05:57.331Z,97534.25
2022-11-19T03:08:02.710Z,97533.50
2022-11-19T03:10:11.582Z,97537.84
2022-11-19T03:12:25.602Z,97537.09
2022-11-19T03:14:54.262Z,97551.81
2022-11-19T03:17:04.066Z,97548.31
2022-11-19T03:19:14.640Z,97558.72
2022-11-19T03:21:26.275Z,97550.13
2022-11-19T03:23:36.892Z,97556.78
2022-11-19T03:25:46.659Z,97553.44
2022-11-19T03:27:55.422Z,97556.78
2022-11-19T03:30:04.237Z,97556.94
2022-11-19T03:32:16.984Z,97568.88
2022-11-19T03:34:25.246Z,97570.72
2022-11-19T03:36:35.185Z,97572.59
2022-11-19T03:38:44.790Z,97571.66
2022-11-19T03:40:51.776Z,97580.22
2022-11-19T03:42:59.031Z,97582.88
2022-11-19T03:45:06.994Z,97587.94
2022-11-19T03:47:18.354Z,97589.84
2022-11-19T03:49:31.677Z,97590.09
2022-11-19T03:51:43.854Z,97602.19
2022-11-19T03:53:48.825Z,97605.47
2022-11-19T03:55:58.920Z,97604.44
2022-11-19T03:58:06.733Z,97597.56
2022-11-19T04:00:13.163Z,97600.31
2022-11-19T04:02:21.828Z,97606.34
2022-11-19T04:04:38.893Z,97602.94
2022-11-19T04:06:43.675Z,97603.72
2022-11-19T04:08:48.420Z,97602.97
2022-11-19T04:10:53.415Z,97604.72
2022-11-19T04:12:58.183Z,97607.94
2022-11-19T04:15:03.092Z,97601.72
2022-11-19T04:17:07.974Z,97608.53
2022-11-19T04:19:15.564Z,97615.16
2022-11-19T04:21:20.323Z,97607.19
2022-11-19T04:23:25.150Z,97601.31
2022-11-19T04:25:29.988Z,97600.53
2022-11-19T04:27:34.812Z,97601.41
2022-11-19T04:29:39.720Z,97610.19
2022-11-19T04:31:44.543Z,97613.69
2022-11-19T04:33:49.330Z,97618.75
2022-11-19T04:35:56.832Z,97610.19
2022-11-19T04:38:01.585Z,97619.81
2022-11-19T04:40:10.979Z,97615.44
2022-11-19T04:42:15.938Z,97618.16
2022-11-19T04:44:20.699Z,97620.88
2022-11-19T04:46:25.486Z,97623.25
2022-11-19T04:48:30.487Z,97610.44
2022-11-19T04:50:35.255Z,97613.84
2022-11-19T04:52:42.759Z,97615.81
2022-11-19T04:54:47.667Z,97616.50
2022-11-19T04:56:52.494Z,97611.22
2022-11-19T04:58:57.358Z,97614.50
2022-11-19T05:01:02.223Z,97612.16
2022-11-19T05:03:09.374Z,97608.91
2022-11-19T05:05:14.225Z,97609.88
2022-11-19T05:07:19.228Z,97616.81
2022-11-19T05:09:26.441Z,97607.56
2022-11-19T05:11:31.260Z,97605.88
2022-11-19T05:13:36.208Z,97610.38
2022-11-19T05:15:41.096Z,97604.34
2022-11-19T05:17:48.088Z,97616.97
2022-11-19T05:19:52.996Z,97611.84
2022-11-19T05:21:57.838Z,97620.38
2022-11-19T05:24:02.607Z,97617.81
2022-11-19T05:26:10.137Z,97617.00
2022-11-19T05:28:14.932Z,97617.06
2022-11-19T05:30:19.849Z,97614.50
2022-11-19T05:32:24.693Z,97619.56
2022-11-19T05:34:29.537Z,97617.78
2022-11-19T05:36:34.320Z,97608.44
2022-11-19T05:38:39.201Z,97607.59
2022-11-19T05:40:44.021Z,97603.44
2022-11-19T05:42:51.427Z,97605.00
2022-11-19T05:44:56.209Z,97610.91
2022-11-19T05:47:01.046Z,97610.91
2022-11-19T05:49:06.112Z,97615.09
2022-11-19T05:51:10.990Z,97603.72
2022-11-19T05:53:15.761Z,97605.19
2022-11-19T05:55:20.888Z,97606.03
2022-11-19T05:57:25.574Z,97601.78
2022-11-19T05:59:32.963Z,97601.56
2022-11-19T06:01:37.745Z,97600.56
2022-11-19T06:03:42.936Z,97600.47
2022-11-19T06:05:47.448Z,97601.28
2022-11-19T06:07:52.359Z,97603.88
2022-11-19T06:09:57.136Z,97598.81
2022-11-19T06:12:01.947Z,97599.81
2022-11-19T06:14:07.042Z,97611.84
2022-11-19T06:16:14.401Z,97611.03
2022-11-19T06:18:19.271Z,97614.50
2022-11-19T06:20:24.211Z,97615.50
2022-11-19T06:22:29.000Z,97615.50
2022-11-19T06:24:33.933Z,97613.72
2022-11-19T06:26:38.895Z,97611.22
2022-11-19T06:28:43.668Z,97619.88
2022-11-19T06:30:48.504Z,97624.31
2022-11-19T06:32:55.887Z,97621.78
2022-11-19T06:35:00.686Z,97624.53
2022-11-19T06:37:05.520Z,97627.81
2022-11-19T06:39:10.950Z,97633.53
2022-11-19T06:41:15.769Z,97634.34
2022-11-19T06:43:20.542Z,97628.38
2022-11-19T06:45:25.368Z,97639.59
2022-11-19T06:47:32.261Z,97644.81
2022-11-19T06:49:39.742Z,97641.47
2022-11-19T06:51:44.507Z,97642.47
2022-11-19T06:53:49.424Z,97658.06
2022-11-19T06:55:59.382Z,97651.41
2022-11-19T06:58:04.986Z,97651.41
2022-11-19T07:00:11.303Z,97652.25
2022-11-19T07:02:21.463Z,97649.69
2022-11-19T07:04:26.626Z,97655.56
2022-11-19T07:06:34.010Z,97653.00
2022-11-19T07:08:39.960Z,97658.16
2022-11-19T07:10:44.933Z,97665.09
2022-11-19T07:12:49.695Z,97662.69
2022-11-19T07:14:56.577Z,97673.19
2022-11-19T07:17:05.151Z,97682.53
2022-11-19T07:19:11.652Z,97674.03
2022-11-19T07:21:19.181Z,97687.81
2022-11-19T07:23:26.572Z,97691.16
2022-11-19T07:25:32.531Z,97698.94
2022-11-19T07:27:37.370Z,97702.41
2022-11-19T07:29:42.086Z,97708.47
2022-11-19T07:31:50.387Z,97706.84
2022-11-19T07:33:55.131Z,97713.66
2022-11-19T07:35:59.972Z,97706.78
2022-11-19T07:38:04.736Z,97709.38
2022-11-19T07:40:19.284Z,97712.09
2022-11-19T07:42:36.554Z,97717.16
2022-11-19T07:44:47.928Z,97716.47
2022-11-19T07:46:55.870Z,97708.09
2022-11-19T07:49:01.601Z,97713.47
2022-11-19T07:51:06.529Z,97721.31
2022-11-19T07:53:11.763Z,97721.50
2022-11-19T07:55:21.615Z,97719.81
2022-11-19T07:57:30.275Z,97718.16
2022-11-19T07:59:35.435Z,97719.19
2022-11-19T08:01:40.719Z,97713.38
2022-11-19T08:03:48.645Z,97720.06
2022-11-19T08:05:57.029Z,97720.91
2022-11-19T08:08:01.781Z,97724.44
2022-11-19T08:10:07.969Z,97733.94
2022-11-19T08:12:15.344Z,97727.91
2022-11-19T08:14:20.194Z,97738.06
2022-11-19T08:16:37.599Z,97740.56
2022-11-19T08:18:44.757Z,97745.66
2022-11-19T08:20:50.249Z,97743.78
2022-11-19T08:22:55.046Z,97747.50
2022-11-19T08:24:59.833Z,97737.53
2022-11-19T08:27:05.499Z,97739.34
2022-11-19T08:29:16.437Z,97739.44
2022-11-19T08:31:21.575Z,97743.06
2022-11-19T08:33:26.409Z,97741.44
2022-11-19T08:35:31.223Z,97759.38
2022-11-19T08:37:35.981Z,97761.94
2022-11-19T08:39:40.781Z,97763.50
2022-11-19T08:42:00.547Z,97764.34
2022-11-19T08:44:05.976Z,97760.94
2022-11-19T08:46:16.013Z,97760.03
2022-11-19T08:48:20.809Z,97761.66
2022-11-19T08:50:26.114Z,97754.78
2022-11-19T08:52:30.748Z,97753.28
2022-11-19T08:54:35.586Z,97752.50
2022-11-19T08:56:40.356Z,97759.41
2022-11-19T08:58:46.277Z,97761.84
2022-11-19T09:00:51.754Z,97764.41
2022-11-19T09:02:59.250Z,97771.31
2022-11-19T09:05:04.131Z,97767.91
2022-11-19T09:07:08.974Z,97772.22
2022-11-19T09:09:13.860Z,97771.41
2022-11-19T09:11:21.226Z,97776.56
2022-11-19T09:13:26.155Z,97775.72
2022-11-19T09:15:31.237Z,97780.81
2022-11-19T09:17:36.034Z,97788.41
2022-11-19T09:19:43.387Z,97782.34
2022-11-19T09:21:48.299Z,97773.88
2022-11-19T09:23:53.103Z,97778.06
2022-11-19T09:25:59.360Z,97776.09
2022-11-19T09:28:04.735Z,97780.13
2022-11-19T09:30:11.427Z,97773.91
2022-11-19T09:32:25.026Z,97768.72
2022-11-19T09:34:30.266Z,97774.56
2022-11-19T09:36:37.741Z,97778.75
2022-11-19T09:38:43.019Z,97780.28
2022-11-19T09:40:48.767Z,97782.75
2022-11-19T09:43:04.408Z,97775.88
2022-11-19T09:45:19.692Z,97777.47
2022-11-19T09:47:36.886Z,97777.91
2022-11-19T09:49:49.910Z,97776.06
2022-11-19T09:52:01.376Z,97776.13
2022-11-19T09:54:08.686Z,97772.66
2022-11-19T09:56:17.285Z,97776.78
2022-11-19T09:58:27.685Z,97775.63
2022-11-19T10:00:34.129Z,97772.97
2022-11-19T10:02:39.050Z,97774.78
2022-11-19T10:04:44.030Z,97765.34
2022-11-19T10:06:58.212Z,97773.88
2022-11-19T10:09:18.755Z,97774.72
2022-11-19T10:11:35.819Z,97761.13
2022-11-19T10:13:51.442Z,97762.78
2022-11-19T10:16:08.879Z,97754.94
2022-11-19T10:18:23.601Z,97765.25
2022-11-19T10:20:45.656Z,97766.22
2022-11-19T10:22:57.958Z,97767.88
2022-11-19T10:25:15.054Z,97769.31
2022-11-19T10:27:25.389Z,97761.50
2022-11-19T10:29:32.139Z,97758.09
2022-11-19T10:31:39.666Z,97760.69
2022-11-19T10:33:52.562Z,97758.16
2022-11-19T10:36:00.694Z,97760.97
2022-11-19T10:38:10.352Z,97761.78
2022-11-19T10:40:22.606Z,97753.09
2022-11-19T10:42:31.575Z,97747.16
2022-11-19T10:44:42.387Z,97758.44
2022-11-19T10:46:49.474Z,97754.13
2022-11-19T10:48:57.760Z,97754.81
2022-11-19T10:51:02.895Z,97754.81
2022-11-19T10:53:16.342Z,97755.53
2022-11-19T10:55:29.049Z,97758.00
2022-11-19T10:57:35.718Z,97755.38
2022-11-19T10:59:42.893Z,97749.88
2022-11-19T11:01:51.700Z,97753.22
2022-11-19T11:04:07.366Z,97740.38
2022-11-19T11:06:14.576Z,97744.88
2022-11-19T11:08:19.363Z,97744.19
2022-11-19T11:10:42.814Z,97740.78
2022-11-19T11:13:00.062Z,97741.63
2022-11-19T11:15:18.445Z,97734.00
2022-11-19T11:17:25.930Z,97733.41
2022-11-19T11:19:31.780Z,97732.53
2022-11-19T11:21:39.795Z,97736.75
2022-11-19T11:23:54.368Z,97734.94
2022-11-19T11:26:08.353Z,97723.81
2022-11-19T11:28:16.721Z,97728.78
2022-11-19T11:30:22.485Z,97727.06
2022-11-19T11:32:31.769Z,97727.16
2022-11-19T11:34:43.558Z,97726.28
2022-11-19T11:36:49.066Z,97731.41
2022-11-19T11:38:56.249Z,97730.50
2022-11-19T11:43:34.632Z,97735.84
2022-11-19T11:45:40.242Z,97740.16
2022-11-19T11:47:47.830Z,97736.06
2022-11-19T11:50:00.488Z,97749.13
2022-11-19T11:52:09.891Z,97754.38
2022-11-19T11:54:20.456Z,97756.06
2022-11-19T11:56:27.834Z,97753.56
2022-11-19T11:58:34.207Z,97750.94
2022-11-19T12:00:43.614Z,97744.94
2022-11-19T12:03:03.555Z,97749.19
2022-11-19T12:05:10.430Z,97745.72
2022-11-19T12:07:28.013Z,97729.16
2022-11-19T12:09:43.695Z,97728.13
2022-11-19T12:11:58.579Z,97728.22
2022-11-19T12:14:10.944Z,97729.44
2022-11-19T12:16:25.406Z,97736.44
2022-11-19T12:18:42.200Z,97743.41
2022-11-19T12:20:56.878Z,97745.19
2022-11-19T12:23:25.406Z,97740.00
2022-11-19T12:25:38.103Z,97742.50
2022-11-19T12:27:59.893Z,97744.31
2022-11-19T12:30:10.744Z,97735.13
2022-11-19T12:32:26.318Z,97740.28
2022-11-19T12:34:57.715Z,97738.00
2022-11-19T12:37:18.331Z,97741.47
2022-11-19T12:39:35.664Z,97746.50
2022-11-19T12:42:15.484Z,97746.44
2022-11-19T12:44:34.355Z,97732.81
2022-11-19T12:46:50.616Z,97747.63
2022-11-19T12:49:05.963Z,97735.75
2022-11-19T12:51:20.928Z,97746.78
2022-11-19T12:53:35.809Z,97741.78
2022-11-19T12:55:53.430Z,97746.84
2022-11-19T12:58:07.538Z,97739.91
2022-11-19T13:00:19.358Z,97743.19
2022-11-19T13:02:31.451Z,97739.56
2022-11-19T13:04:43.455Z,97740.50
2022-11-19T13:06:52.785Z,97735.56
2022-11-19T13:09:02.270Z,97725.16
2022-11-19T13:11:15.319Z,97732.03
2022-11-19T13:13:25.462Z,97740.56
2022-11-19T13:15:37.986Z,97737.03
2022-11-19T13:17:47.286Z,97738.78
2022-11-19T13:19:56.728Z,97733.72
2022-11-19T13:22:08.013Z,97737.03
2022-11-19T13:24:24.548Z,97727.66
2022-11-19T13:26:33.035Z,97732.03
2022-11-19T13:28:45.268Z,97738.97
2022-11-19T13:30:56.313Z,97734.78
2022-11-19T13:33:09.580Z,97739.06
2022-11-19T13:35:22.462Z,97742.63
2022-11-19T13:37:42.829Z,97741.00
2022-11-19T13:39:51.767Z,97745.38
2022-11-19T13:42:10.482Z,97752.28
2022-11-19T13:44:27.739Z,97751.47
2022-11-19T13:46:40.495Z,97761.72
2022-11-19T13:48:48.778Z,97762.53
2022-11-19T13:50:58.433Z,97760.78
2022-11-19T13:53:08.757Z,97753.78
2022-11-19T13:55:32.086Z,97755.34
2022-11-19T13:57:41.099Z,97762.09
2022-11-19T13:59:49.223Z,97754.25
2022-11-19T14:02:10.987Z,97757.75
2022-11-19T14:04:33.029Z,97765.44
2022-11-19T14:06:54.125Z,97756.88
2022-11-19T14:09:19.169Z,97758.63
2022-11-19T14:11:48.647Z,97758.72
2022-11-19T14:14:33.988Z,97758.75
2022-11-19T14:16:59.996Z,97759.75
2022-11-19T14:19:25.787Z,97762.31
2022-11-19T14:22:15.002Z,97761.25
2022-11-19T14:25:08.470Z,97759.44
2022-11-19T14:27:22.069Z,97755.09
2022-11-19T14:30:00.776Z,97754.97
2022-11-19T14:32:21.615Z,97749.06
2022-11-19T14:34:34.583Z,97763.09
2022-11-19T14:36:50.059Z,97763.00
2022-11-19T14:38:57.568Z,97767.22
2022-11-19T14:41:08.318Z,97760.22
2022-11-19T14:43:39.554Z,97755.81
2022-11-19T14:46:31.472Z,97770.41
2022-11-19T14:48:38.523Z,97763.53
2022-11-19T14:50:45.987Z,97769.56
2022-11-19T14:52:55.328Z,97761.78
2022-11-19T14:55:03.213Z,97770.34
2022-11-19T14:57:17.548Z,97757.53
2022-11-19T14:59:25.380Z,97764.22
2022-11-19T15:01:30.218Z,97766.09
2022-11-19T15:03:37.745Z,97763.56
2022-11-19T15:05:48.339Z,97766.31
2022-11-19T15:07:56.528Z,97773.09
2022-11-19T15:10:20.441Z,97766.09
2022-11-19T15:12:36.201Z,97764.38
2022-11-19T15:15:02.284Z,97766.16
2022-11-19T15:17:08.580Z,97773.03
2022-11-19T15:19:28.964Z,97772.06
2022-11-19T15:21:52.842Z,97770.28
2022-11-19T15:24:11.134Z,97776.16
2022-11-19T15:26:24.367Z,97771.03
2022-11-19T15:28:44.381Z,97766.59
2022-11-19T15:31:05.729Z,97764.00
2022-11-19T15:33:34.155Z,97764.06
2022-11-19T15:36:09.630Z,97765.06
2022-11-19T15:38:31.144Z,97763.34
2022-11-19T15:40:37.294Z,97764.06
2022-11-19T15:42:47.195Z,97763.22
2022-11-19T15:44:56.667Z,97760.56
2022-11-19T15:47:04.665Z,97759.66
2022-11-19T15:49:17.056Z,97751.84
2022-11-19T15:51:23.072Z,97744.06
2022-11-19T15:53:31.218Z,97738.16
2022-11-19T15:55:37.392Z,97739.16
2022-11-19T15:57:48.550Z,97742.63
2022-11-19T16:00:01.018Z,97753.75
2022-11-19T16:02:08.019Z,97754.53
2022-11-19T16:04:19.054Z,97772.38
2022-11-19T16:06:26.472Z,97767.13
2022-11-19T16:08:34.930Z,97772.06
2022-11-19T16:10:44.390Z,97761.50
2022-11-19T16:13:08.864Z,97758.22
2022-11-19T16:15:38.368Z,97756.56
2022-11-19T16:17:48.806Z,97755.78
2022-11-19T16:20:04.843Z,97766.94
2022-11-19T16:22:09.682Z,97772.25
2022-11-19T16:24:32.346Z,97770.53
2022-11-19T16:26:40.136Z,97768.03
2022-11-19T16:28:44.939Z,97775.75
2022-11-19T16:30:52.287Z,97784.41
2022-11-19T16:33:00.770Z,97793.16
2022-11-19T16:35:15.369Z,97796.63
2022-11-19T16:37:22.755Z,97800.28
2022-11-19T16:39:32.333Z,97812.22
2022-11-19T16:41:50.253Z,97805.31
2022-11-19T16:43:55.612Z,97807.81
2022-11-19T16:46:00.927Z,97800.22
2022-11-19T16:48:05.773Z,97797.63
2022-11-19T16:50:28.614Z,97798.59
2022-11-19T16:52:45.143Z,97803.81
2022-11-19T16:54:53.709Z,97788.50
2022-11-19T16:56:59.025Z,97774.81
2022-11-19T16:59:05.100Z,97775.00
2022-11-19T17:01:09.980Z,97783.59
2022-11-19T17:03:23.264Z,97800.63
2022-11-19T17:05:30.972Z,97810.75
2022-11-19T17:07:36.076Z,97798.66
2022-11-19T17:09:44.776Z,97802.06
2022-11-19T17:12:10.133Z,97806.47
2022-11-19T17:14:25.122Z,97810.84
2022-11-19T17:16:29.937Z,97815.94
2022-11-19T17:18:36.467Z,97811.63
2022-11-19T17:21:03.564Z,97809.00
2022-11-19T17:23:16.577Z,97806.38
2022-11-19T17:25:21.408Z,97807.22
2022-11-19T17:27:33.119Z,97801.06
2022-11-19T17:29:38.198Z,97806.13
2022-11-19T17:31:51.854Z,97793.28
2022-11-19T17:33:58.510Z,97804.28
2022-11-19T17:36:03.621Z,97795.59
2022-11-19T17:38:14.445Z,97800.81
2022-11-19T17:40:19.331Z,97797.56
2022-11-19T17:42:36.959Z,97791.56
2022-11-19T17:44:44.613Z,97809.50
2022-11-19T17:46:49.386Z,97817.25
2022-11-19T17:48:55.464Z,97819.72
2022-11-19T17:51:00.463Z,97824.84
2022-11-19T17:53:05.275Z,97824.00
2022-11-19T17:55:18.961Z,97838.72
2022-11-19T17:57:23.893Z,97834.63
2022-11-19T17:59:29.646Z,97844.03
2022-11-19T18:01:37.611Z,97826.88
2022-11-19T18:03:44.963Z,97820.84
2022-11-19T18:05:51.704Z,97815.81
2022-11-19T18:07:56.600Z,97825.19
2022-11-19T18:10:01.380Z,97846.56
2022-11-19T18:12:06.838Z,97834.69
2022-11-19T18:14:12.992Z,97829.56
2022-11-19T18:16:19.712Z,97830.47
2022-11-19T18:18:27.207Z,97830.34
2022-11-19T18:20:32.024Z,97828.69
2022-11-19T18:22:36.868Z,97832.25
2022-11-19T18:24:41.902Z,97826.22
2022-11-19T18:26:46.808Z,97813.38
2022-11-19T18:28:51.612Z,97833.97
2022-11-19T18:30:56.600Z,97833.13
2022-11-19T18:33:02.427Z,97843.25
2022-11-19T18:35:16.727Z,97842.31
2022-11-19T18:37:21.530Z,97848.28
2022-11-19T18:39:26.350Z,97853.38
2022-11-19T18:41:32.152Z,97841.41
2022-11-19T18:43:49.380Z,97827.63
2022-11-19T18:45:54.157Z,97819.91
2022-11-19T18:47:59.067Z,97820.91
2022-11-19T18:50:03.884Z,97824.38
2022-11-19T18:52:15.128Z,97835.50
2022-11-19T18:54:20.206Z,97828.63
2022-11-19T18:56:24.857Z,97827.88
2022-11-19T18:58:29.935Z,97837.22
2022-11-19T19:00:34.712Z,97839.78
2022-11-19T19:02:39.601Z,97836.44
2022-11-19T19:04:49.688Z,97844.09
2022-11-19T19:06:56.111Z,97840.59
2022-11-19T19:09:03.291Z,97838.97
2022-11-19T19:11:22.464Z,97835.66
2022-11-19T19:13:27.349Z,97846.09
2022-11-19T19:15:32.125Z,97844.38
2022-11-19T19:17:37.013Z,97840.13
2022-11-19T19:19:41.910Z,97835.25
2022-11-19T19:21:46.755Z,97831.00
2022-11-19T19:23:52.102Z,97842.13
2022-11-19T19:26:00.630Z,97841.34
2022-11-19T19:28:05.411Z,97849.09
2022-11-19T19:30:12.161Z,97855.13
2022-11-19T19:32:19.764Z,97860.16
2022-11-19T19:34:24.575Z,97863.53
2022-11-19T19:36:30.412Z,97867.72
2022-11-19T19:38:35.244Z,97865.09
2022-11-19T19:40:40.010Z,97859.78
2022-11-19T19:42:47.595Z,97858.06
2022-11-19T19:44:52.463Z,97861.47
2022-11-19T19:46:57.272Z,97860.56
2022-11-19T19:49:02.610Z,97856.34
2022-11-19T19:51:07.611Z,97863.09
2022-11-19T19:53:12.743Z,97865.78
2022-11-19T19:55:17.373Z,97864.94
2022-11-19T19:57:22.434Z,97864.09
2022-11-19T19:59:29.800Z,97863.19
2022-11-19T20:01:36.344Z,97857.34
2022-11-19T20:03:41.923Z,97861.75
2022-11-19T20:05:51.745Z,97862.63
2022-11-19T20:07:56.567Z,97862.63
2022-11-19T20:10:01.430Z,97866.75
2022-11-19T20:12:06.450Z,97861.41
2022-11-19T20:14:12.601Z,97864.75
2022-11-19T20:16:22.461Z,97868.97
2022-11-19T20:18:28.218Z,97861.25
2022-11-19T20:20:32.992Z,97868.06
2022-11-19T20:22:37.799Z,97866.28
2022-11-19T20:24:45.459Z,97862.03
2022-11-19T20:26:50.340Z,97868.13
2022-11-19T20:28:58.026Z,97863.88
2022-11-19T20:31:06.631Z,97865.66
2022-11-19T20:33:14.053Z,97876.94
2022-11-19T20:35:19.268Z,97876.19
2022-11-19T20:37:23.852Z,97871.13
2022-11-19T20:39:28.635Z,97869.50
2022-11-19T20:41:46.198Z,97867.72
2022-11-19T20:44:03.541Z,97868.56
2022-11-19T20:46:16.252Z,97868.66
2022-11-19T20:48:23.692Z,97870.38
2022-11-19T20:50:28.555Z,97870.28
2022-11-19T20:52:33.348Z,97882.19
2022-11-19T20:54:38.281Z,97897.50
2022-11-19T20:56:44.104Z,97893.16
2022-11-19T20:58:48.925Z,97891.41
2022-11-19T21:00:53.805Z,97887.22
2022-11-19T21:02:58.595Z,97882.03
2022-11-19T21:05:06.138Z,97882.00
2022-11-19T21:07:11.043Z,97869.22
2022-11-19T21:09:16.046Z,97868.41
2022-11-19T21:11:20.968Z,97869.34
2022-11-19T21:13:25.780Z,97868.44
2022-11-19T21:15:31.267Z,97870.13
2022-11-19T21:17:36.060Z,97858.13
2022-11-19T21:19:40.854Z,97862.41
2022-11-19T21:21:50.943Z,97864.03
2022-11-19T21:23:56.689Z,97866.59
2022-11-19T21:26:04.854Z,97866.59
2022-11-19T21:28:09.784Z,97860.69
2022-11-19T21:30:15.584Z,97865.03
2022-11-19T21:32:20.379Z,97868.50
2022-11-19T21:34:25.205Z,97873.72
2022-11-19T21:36:30.202Z,97870.34
2022-11-19T21:38:37.914Z,97866.91
2022-11-19T21:40:43.181Z,97873.78
2022-11-19T21:42:47.753Z,97874.59
2022-11-19T21:44:52.546Z,97879.00
2022-11-19T21:46:57.414Z,97882.38
2022-11-19T21:49:02.475Z,97880.66
2022-11-19T21:51:09.225Z,97879.72
2022-11-19T21:53:15.044Z,97866.94
2022-11-19T21:55:23.147Z,97851.50
2022-11-19T21:57:28.004Z,97848.13
2022-11-19T21:59:32.869Z,97864.31
2022-11-19T22:01:37.786Z,97854.88
2022-11-19T22:03:42.772Z,97838.47
2022-11-19T22:05:47.499Z,97844.53
2022-11-19T22:07:52.700Z,97860.06
2022-11-19T22:09:57.259Z,97872.00
2022-11-19T22:12:04.638Z,97878.00
2022-11-19T22:14:11.772Z,97878.03
2022-11-19T22:16:19.677Z,97865.19
2022-11-19T22:18:24.500Z,97868.66
2022-11-19T22:20:29.272Z,97875.38
2022-11-19T22:22:34.128Z,97872.69
2022-11-19T22:24:38.972Z,97870.06
2022-11-19T22:26:43.907Z,97858.91
2022-11-19T22:28:51.355Z,97851.31
2022-11-19T22:30:56.660Z,97852.25
2022-11-19T22:33:01.206Z,97866.03
2022-11-19T22:35:06.487Z,97856.69
2022-11-19T22:37:11.648Z,97863.53
2022-11-19T22:39:19.711Z,97857.63
2022-11-19T22:41:25.063Z,97856.00
2022-11-19T22:43:33.135Z,97855.97
2022-11-19T22:45:40.512Z,97861.06
2022-11-19T22:47:48.166Z,97849.88
2022-11-19T22:49:52.944Z,97852.44
2022-11-19T22:51:57.849Z,97849.81
2022-11-19T22:54:02.653Z,97839.59
2022-11-19T22:56:09.456Z,97839.59
2022-11-19T22:58:14.242Z,97837.09
2022-11-19T23:00:43.644Z,97842.22
2022-11-19T23:02:48.422Z,97851.59
2022-11-19T23:04:53.265Z,97851.50
2022-11-19T23:06:58.403Z,97856.53
2022-11-19T23:09:03.280Z,97836.84
2022-11-19T23:11:09.654Z,97849.53
2022-11-19T23:13:28.924Z,97833.25
2022-11-19T23:15:33.687Z,97830.53
2022-11-19T23:17:44.929Z,97832.97
2022-11-19T23:19:49.723Z,97830.31
2022-11-19T23:21:54.609Z,97831.13
2022-11-19T23:24:01.180Z,97832.81
2022-11-19T23:26:07.446Z,97839.44
2022-11-19T23:28:15.279Z,97840.22
2022-11-19T23:30:20.319Z,97833.22
2022-11-19T23:32:24.997Z,97829.75
2022-11-19T23:34:32.352Z,97824.59
2022-11-19T23:36:38.656Z,97840.22
2022-11-19T23:38:43.568Z,97838.59
2022-11-19T23:40:48.411Z,97836.13
2022-11-19T23:42:53.220Z,97830.03
2022-11-19T23:44:58.147Z,97837.56
2022-11-19T23:47:03.508Z,97827.13
2022-11-19T23:49:08.761Z,97819.41
2022-11-19T23:51:17.853Z,97822.75
2022-11-19T23:53:22.610Z,97816.78
2022-11-19T23:55:27.371Z,97813.50
2022-11-19T23:57:32.242Z,97820.28
2022-11-19T23:59:38.350Z,97816.81
